sensor_id;sensor_type;location;lat;lon;timestamp;P1;durP1;ratioP1;P2;durP2;ratioP2
70369;SDS011;57790;51.356;-2.906;2022-08-19T00:00:09;5.03;;;0.90;;
70369;SDS011;57790;51.356;-2.906;2022-08-19T00:03:12;2.67;;;0.50;;
70369;SDS011;57790;51.356;-2.906;2022-08-19T00:06:13;2.13;;;0.50;;
70369;SDS011;57790;51.356;-2.906;2022-08-19T00:09:14;4.80;;;0.50;;
70369;SDS011;57790;51.356;-2.906;2022-08-19T00:12:16;3.15;;;0.50;;
70369;SDS011;57790;51.356;-2.906;2022-08-19T00:15:17;4.70;;;0.67;;
70369;SDS011;57790;51.356;-2.906;2022-08-19T00:18:20;4.88;;;0.70;;
70369;SDS011;57790;51.356;-2.906;2022-08-19T00:21:21;4.67;;;0.77;;
70369;SDS011;57790;51.356;-2.906;2022-08-19T00:24:24;6.50;;;1.00;;
70369;SDS011;57790;51.356;-2.906;2022-08-19T00:27:24;7.45;;;0.93;;
70369;SDS011;57790;51.356;-2.906;2022-08-19T00:30:25;4.43;;;0.73;;
70369;SDS011;57790;51.356;-2.906;2022-08-19T00:33:27;6.47;;;0.90;;
70369;SDS011;57790;51.356;-2.906;2022-08-19T00:36:28;4.53;;;1.10;;
70369;SDS011;57790;51.356;-2.906;2022-08-19T00:39:29;4.93;;;0.90;;
70369;SDS011;57790;51.356;-2.906;2022-08-19T00:42:30;5.80;;;0.80;;
70369;SDS011;57790;51.356;-2.906;2022-08-19T00:45:30;5.20;;;1.00;;
70369;SDS011;57790;51.356;-2.906;2022-08-19T00:48:32;4.47;;;0.95;;
70369;SDS011;57790;51.356;-2.906;2022-08-19T00:51:33;9.32;;;1.35;;
70369;SDS011;57790;51.356;-2.906;2022-08-19T00:54:35;8.83;;;0.90;;
70369;SDS011;57790;51.356;-2.906;2022-08-19T00:57:38;6.25;;;1.00;;
70369;SDS011;57790;51.356;-2.906;2022-08-19T01:00:41;7.65;;;0.90;;
70369;SDS011;57790;51.356;-2.906;2022-08-19T01:03:42;8.03;;;1.00;;
70369;SDS011;57790;51.356;-2.906;2022-08-19T01:06:42;5.27;;;0.93;;
70369;SDS011;57790;51.356;-2.906;2022-08-19T01:09:42;6.93;;;1.43;;
70369;SDS011;57790;51.356;-2.906;2022-08-19T01:12:44;8.95;;;0.80;;
70369;SDS011;57790;51.356;-2.906;2022-08-19T01:15:52;9.18;;;1.45;;
70369;SDS011;57790;51.356;-2.906;2022-08-19T01:18:56;6.78;;;1.20;;
70369;SDS011;57790;51.356;-2.906;2022-08-19T01:25:10;4.68;;;1.00;;
70369;SDS011;57790;51.356;-2.906;2022-08-19T01:28:21;9.80;;;1.27;;
70369;SDS011;57790;51.356;-2.906;2022-08-19T01:31:26;3.08;;;0.70;;
70369;SDS011;57790;51.356;-2.906;2022-08-19T01:34:30;9.00;;;1.10;;
70369;SDS011;57790;51.356;-2.906;2022-08-19T01:37:41;5.27;;;0.90;;
70369;SDS011;57790;51.356;-2.906;2022-08-19T01:40:52;5.55;;;1.10;;
70369;SDS011;57790;51.356;-2.906;2022-08-19T01:43:53;7.83;;;1.30;;
70369;SDS011;57790;51.356;-2.906;2022-08-19T01:46:54;5.00;;;1.00;;
70369;SDS011;57790;51.356;-2.906;2022-08-19T01:49:55;6.80;;;1.20;;
70369;SDS011;57790;51.356;-2.906;2022-08-19T01:52:58;6.35;;;1.10;;
70369;SDS011;57790;51.356;-2.906;2022-08-19T01:56:00;9.38;;;1.23;;
70369;SDS011;57790;51.356;-2.906;2022-08-19T01:59:12;7.90;;;1.03;;
70369;SDS011;57790;51.356;-2.906;2022-08-19T02:02:16;6.25;;;1.10;;
70369;SDS011;57790;51.356;-2.906;2022-08-19T02:05:16;7.73;;;0.90;;
70369;SDS011;57790;51.356;-2.906;2022-08-19T02:08:18;9.43;;;1.27;;
70369;SDS011;57790;51.356;-2.906;2022-08-19T02:11:29;7.43;;;0.95;;
70369;SDS011;57790;51.356;-2.906;2022-08-19T02:14:35;8.10;;;1.20;;
70369;SDS011;57790;51.356;-2.906;2022-08-19T02:17:36;8.55;;;1.38;;
70369;SDS011;57790;51.356;-2.906;2022-08-19T02:20:37;9.25;;;1.50;;
70369;SDS011;57790;51.356;-2.906;2022-08-19T02:23:38;8.30;;;1.53;;
70369;SDS011;57790;51.356;-2.906;2022-08-19T02:26:39;8.38;;;1.40;;
70369;SDS011;57790;51.356;-2.906;2022-08-19T02:29:39;9.13;;;1.60;;
70369;SDS011;57790;51.356;-2.906;2022-08-19T02:32:41;6.63;;;1.33;;
70369;SDS011;57790;51.356;-2.906;2022-08-19T02:35:45;11.02;;;2.10;;
70369;SDS011;57790;51.356;-2.906;2022-08-19T02:38:46;11.82;;;1.60;;
70369;SDS011;57790;51.356;-2.906;2022-08-19T02:41:47;8.70;;;1.50;;
70369;SDS011;57790;51.356;-2.906;2022-08-19T02:44:49;10.60;;;1.65;;
70369;SDS011;57790;51.356;-2.906;2022-08-19T02:47:49;11.87;;;1.60;;
70369;SDS011;57790;51.356;-2.906;2022-08-19T02:50:50;7.50;;;1.35;;
70369;SDS011;57790;51.356;-2.906;2022-08-19T02:53:55;10.57;;;1.40;;
70369;SDS011;57790;51.356;-2.906;2022-08-19T02:56:56;12.70;;;1.80;;
70369;SDS011;57790;51.356;-2.906;2022-08-19T02:59:57;9.87;;;2.00;;
70369;SDS011;57790;51.356;-2.906;2022-08-19T03:02:58;9.60;;;1.67;;
70369;SDS011;57790;51.356;-2.906;2022-08-19T03:06:04;10.25;;;1.80;;
70369;SDS011;57790;51.356;-2.906;2022-08-19T03:09:07;11.15;;;1.80;;
70369;SDS011;57790;51.356;-2.906;2022-08-19T03:12:08;13.93;;;2.10;;
70369;SDS011;57790;51.356;-2.906;2022-08-19T03:15:09;16.67;;;1.77;;
70369;SDS011;57790;51.356;-2.906;2022-08-19T03:18:10;13.82;;;1.88;;
70369;SDS011;57790;51.356;-2.906;2022-08-19T03:21:15;15.50;;;1.90;;
70369;SDS011;57790;51.356;-2.906;2022-08-19T03:24:24;11.98;;;1.90;;
70369;SDS011;57790;51.356;-2.906;2022-08-19T03:27:24;12.57;;;1.93;;
70369;SDS011;57790;51.356;-2.906;2022-08-19T03:30:25;15.57;;;2.00;;
70369;SDS011;57790;51.356;-2.906;2022-08-19T03:33:26;13.10;;;2.10;;
70369;SDS011;57790;51.356;-2.906;2022-08-19T03:36:27;18.58;;;2.97;;
70369;SDS011;57790;51.356;-2.906;2022-08-19T03:39:27;14.73;;;2.10;;
70369;SDS011;57790;51.356;-2.906;2022-08-19T03:42:28;17.83;;;2.27;;
70369;SDS011;57790;51.356;-2.906;2022-08-19T03:45:28;14.85;;;2.45;;
70369;SDS011;57790;51.356;-2.906;2022-08-19T03:48:29;13.27;;;2.20;;
70369;SDS011;57790;51.356;-2.906;2022-08-19T03:51:32;13.13;;;2.17;;
70369;SDS011;57790;51.356;-2.906;2022-08-19T03:54:35;15.38;;;2.50;;
70369;SDS011;57790;51.356;-2.906;2022-08-19T03:57:35;15.80;;;2.87;;
70369;SDS011;57790;51.356;-2.906;2022-08-19T04:00:36;15.20;;;2.73;;
70369;SDS011;57790;51.356;-2.906;2022-08-19T04:03:38;15.05;;;2.03;;
70369;SDS011;57790;51.356;-2.906;2022-08-19T04:06:39;13.43;;;2.13;;
70369;SDS011;57790;51.356;-2.906;2022-08-19T04:09:40;14.77;;;2.40;;
70369;SDS011;57790;51.356;-2.906;2022-08-19T04:12:41;14.43;;;2.33;;
70369;SDS011;57790;51.356;-2.906;2022-08-19T04:15:41;13.70;;;2.03;;
70369;SDS011;57790;51.356;-2.906;2022-08-19T04:18:43;12.07;;;2.27;;
70369;SDS011;57790;51.356;-2.906;2022-08-19T04:21:44;17.75;;;2.25;;
70369;SDS011;57790;51.356;-2.906;2022-08-19T04:24:46;13.07;;;2.30;;
70369;SDS011;57790;51.356;-2.906;2022-08-19T04:27:46;11.93;;;2.57;;
70369;SDS011;57790;51.356;-2.906;2022-08-19T04:30:50;16.77;;;2.40;;
70369;SDS011;57790;51.356;-2.906;2022-08-19T04:33:53;11.18;;;2.20;;
70369;SDS011;57790;51.356;-2.906;2022-08-19T04:36:57;15.33;;;2.10;;
70369;SDS011;57790;51.356;-2.906;2022-08-19T04:39:58;12.27;;;2.20;;
70369;SDS011;57790;51.356;-2.906;2022-08-19T04:43:18;12.68;;;2.33;;
70369;SDS011;57790;51.356;-2.906;2022-08-19T04:46:18;13.10;;;2.43;;
70369;SDS011;57790;51.356;-2.906;2022-08-19T04:49:20;11.77;;;2.00;;
70369;SDS011;57790;51.356;-2.906;2022-08-19T04:52:22;12.90;;;2.10;;
70369;SDS011;57790;51.356;-2.906;2022-08-19T04:55:22;11.40;;;2.43;;
70369;SDS011;57790;51.356;-2.906;2022-08-19T04:58:25;14.00;;;2.38;;
70369;SDS011;57790;51.356;-2.906;2022-08-19T05:01:28;11.23;;;2.58;;
70369;SDS011;57790;51.356;-2.906;2022-08-19T05:04:29;13.23;;;2.50;;
70369;SDS011;57790;51.356;-2.906;2022-08-19T05:07:31;11.73;;;2.08;;
70369;SDS011;57790;51.356;-2.906;2022-08-19T05:10:34;12.40;;;2.43;;
70369;SDS011;57790;51.356;-2.906;2022-08-19T05:13:36;15.10;;;2.38;;
70369;SDS011;57790;51.356;-2.906;2022-08-19T05:16:37;11.30;;;2.00;;
70369;SDS011;57790;51.356;-2.906;2022-08-19T05:19:37;10.83;;;1.97;;
70369;SDS011;57790;51.356;-2.906;2022-08-19T05:22:56;11.43;;;2.20;;
70369;SDS011;57790;51.356;-2.906;2022-08-19T05:25:56;12.33;;;2.20;;
70369;SDS011;57790;51.356;-2.906;2022-08-19T05:28:57;10.97;;;2.43;;
70369;SDS011;57790;51.356;-2.906;2022-08-19T05:31:57;11.67;;;2.07;;
70369;SDS011;57790;51.356;-2.906;2022-08-19T05:34:59;12.05;;;2.38;;
70369;SDS011;57790;51.356;-2.906;2022-08-19T05:37:59;9.03;;;2.00;;
70369;SDS011;57790;51.356;-2.906;2022-08-19T05:41:00;9.43;;;2.07;;
70369;SDS011;57790;51.356;-2.906;2022-08-19T05:44:01;11.68;;;2.22;;
70369;SDS011;57790;51.356;-2.906;2022-08-19T05:47:06;14.23;;;2.60;;
70369;SDS011;57790;51.356;-2.906;2022-08-19T05:50:08;10.32;;;2.50;;
70369;SDS011;57790;51.356;-2.906;2022-08-19T05:53:08;13.77;;;3.07;;
70369;SDS011;57790;51.356;-2.906;2022-08-19T05:56:11;15.43;;;2.53;;
70369;SDS011;57790;51.356;-2.906;2022-08-19T05:59:15;14.57;;;3.17;;
70369;SDS011;57790;51.356;-2.906;2022-08-19T06:02:16;10.73;;;1.93;;
70369;SDS011;57790;51.356;-2.906;2022-08-19T06:05:17;12.50;;;2.28;;
70369;SDS011;57790;51.356;-2.906;2022-08-19T06:08:17;12.73;;;2.27;;
70369;SDS011;57790;51.356;-2.906;2022-08-19T06:11:23;13.05;;;3.00;;
70369;SDS011;57790;51.356;-2.906;2022-08-19T06:14:35;13.87;;;2.00;;
70369;SDS011;57790;51.356;-2.906;2022-08-19T06:17:35;13.63;;;2.20;;
70369;SDS011;57790;51.356;-2.906;2022-08-19T06:20:36;10.87;;;2.63;;
70369;SDS011;57790;51.356;-2.906;2022-08-19T06:23:36;12.43;;;1.88;;
70369;SDS011;57790;51.356;-2.906;2022-08-19T06:26:37;9.50;;;2.10;;
70369;SDS011;57790;51.356;-2.906;2022-08-19T06:29:40;9.93;;;1.97;;
70369;SDS011;57790;51.356;-2.906;2022-08-19T06:32:42;11.15;;;1.67;;
70369;SDS011;57790;51.356;-2.906;2022-08-19T06:35:42;11.83;;;2.07;;
70369;SDS011;57790;51.356;-2.906;2022-08-19T06:38:43;10.25;;;1.73;;
70369;SDS011;57790;51.356;-2.906;2022-08-19T06:41:45;10.37;;;1.77;;
70369;SDS011;57790;51.356;-2.906;2022-08-19T06:44:48;10.73;;;1.70;;
70369;SDS011;57790;51.356;-2.906;2022-08-19T06:47:49;10.07;;;1.53;;
70369;SDS011;57790;51.356;-2.906;2022-08-19T06:50:49;10.57;;;1.60;;
70369;SDS011;57790;51.356;-2.906;2022-08-19T06:53:52;8.57;;;1.70;;
70369;SDS011;57790;51.356;-2.906;2022-08-19T06:56:53;12.90;;;2.28;;
70369;SDS011;57790;51.356;-2.906;2022-08-19T06:59:54;10.63;;;1.20;;
70369;SDS011;57790;51.356;-2.906;2022-08-19T07:02:56;9.48;;;1.50;;
70369;SDS011;57790;51.356;-2.906;2022-08-19T07:05:57;9.60;;;1.83;;
70369;SDS011;57790;51.356;-2.906;2022-08-19T07:08:59;10.88;;;1.73;;
70369;SDS011;57790;51.356;-2.906;2022-08-19T07:11:59;11.53;;;2.03;;
70369;SDS011;57790;51.356;-2.906;2022-08-19T07:15:00;12.82;;;2.25;;
70369;SDS011;57790;51.356;-2.906;2022-08-19T07:18:00;9.37;;;1.90;;
70369;SDS011;57790;51.356;-2.906;2022-08-19T07:24:09;9.05;;;1.52;;
70369;SDS011;57790;51.356;-2.906;2022-08-19T07:27:09;13.20;;;2.00;;
70369;SDS011;57790;51.356;-2.906;2022-08-19T07:30:10;13.77;;;2.07;;
70369;SDS011;57790;51.356;-2.906;2022-08-19T07:33:11;12.97;;;2.13;;
70369;SDS011;57790;51.356;-2.906;2022-08-19T07:36:12;12.13;;;1.73;;
70369;SDS011;57790;51.356;-2.906;2022-08-19T07:39:26;11.23;;;1.48;;
70369;SDS011;57790;51.356;-2.906;2022-08-19T07:42:29;14.18;;;2.10;;
70369;SDS011;57790;51.356;-2.906;2022-08-19T07:45:29;10.90;;;1.30;;
70369;SDS011;57790;51.356;-2.906;2022-08-19T07:48:32;13.70;;;1.50;;
70369;SDS011;57790;51.356;-2.906;2022-08-19T07:51:33;11.93;;;1.93;;
70369;SDS011;57790;51.356;-2.906;2022-08-19T07:54:35;8.27;;;1.45;;
70369;SDS011;57790;51.356;-2.906;2022-08-19T07:57:37;9.45;;;1.70;;
70369;SDS011;57790;51.356;-2.906;2022-08-19T08:00:38;11.20;;;1.80;;
70369;SDS011;57790;51.356;-2.906;2022-08-19T08:03:39;10.90;;;1.73;;
70369;SDS011;57790;51.356;-2.906;2022-08-19T08:06:58;8.95;;;1.60;;
70369;SDS011;57790;51.356;-2.906;2022-08-19T08:10:17;11.43;;;1.70;;
70369;SDS011;57790;51.356;-2.906;2022-08-19T08:13:17;15.80;;;1.77;;
70369;SDS011;57790;51.356;-2.906;2022-08-19T08:16:18;12.35;;;1.95;;
70369;SDS011;57790;51.356;-2.906;2022-08-19T08:19:19;12.10;;;1.80;;
70369;SDS011;57790;51.356;-2.906;2022-08-19T08:22:21;9.50;;;1.47;;
70369;SDS011;57790;51.356;-2.906;2022-08-19T08:25:41;10.35;;;1.50;;
70369;SDS011;57790;51.356;-2.906;2022-08-19T08:28:41;13.80;;;2.07;;
70369;SDS011;57790;51.356;-2.906;2022-08-19T08:31:42;12.13;;;1.83;;
70369;SDS011;57790;51.356;-2.906;2022-08-19T08:34:44;10.70;;;1.87;;
70369;SDS011;57790;51.356;-2.906;2022-08-19T08:37:45;12.43;;;1.90;;
70369;SDS011;57790;51.356;-2.906;2022-08-19T08:40:48;7.97;;;1.47;;
70369;SDS011;57790;51.356;-2.906;2022-08-19T08:43:53;11.70;;;1.77;;
70369;SDS011;57790;51.356;-2.906;2022-08-19T08:46:56;7.63;;;1.63;;
70369;SDS011;57790;51.356;-2.906;2022-08-19T08:53:40;8.50;;;1.75;;
70369;SDS011;57790;51.356;-2.906;2022-08-19T08:56:42;10.03;;;2.03;;
70369;SDS011;57790;51.356;-2.906;2022-08-19T08:59:45;12.20;;;2.20;;
70369;SDS011;57790;51.356;-2.906;2022-08-19T09:02:52;10.15;;;1.98;;
70369;SDS011;57790;51.356;-2.906;2022-08-19T09:05:59;9.30;;;1.90;;
70369;SDS011;57790;51.356;-2.906;2022-08-19T09:09:16;12.73;;;2.40;;
70369;SDS011;57790;51.356;-2.906;2022-08-19T09:15:47;11.48;;;2.58;;
70369;SDS011;57790;51.356;-2.906;2022-08-19T09:18:53;11.02;;;2.17;;
70369;SDS011;57790;51.356;-2.906;2022-08-19T09:21:57;10.55;;;1.83;;
70369;SDS011;57790;51.356;-2.906;2022-08-19T09:25:00;10.35;;;1.90;;
70369;SDS011;57790;51.356;-2.906;2022-08-19T09:28:01;11.90;;;2.23;;
70369;SDS011;57790;51.356;-2.906;2022-08-19T09:31:05;15.30;;;2.30;;
70369;SDS011;57790;51.356;-2.906;2022-08-19T09:34:05;12.57;;;2.33;;
70369;SDS011;57790;51.356;-2.906;2022-08-19T09:37:05;11.00;;;2.38;;
70369;SDS011;57790;51.356;-2.906;2022-08-19T09:40:06;10.93;;;1.87;;
70369;SDS011;57790;51.356;-2.906;2022-08-19T09:43:07;11.18;;;2.00;;
70369;SDS011;57790;51.356;-2.906;2022-08-19T09:46:08;11.53;;;1.70;;
70369;SDS011;57790;51.356;-2.906;2022-08-19T09:49:09;10.60;;;2.15;;
70369;SDS011;57790;51.356;-2.906;2022-08-19T09:52:10;10.90;;;1.80;;
70369;SDS011;57790;51.356;-2.906;2022-08-19T09:55:11;10.20;;;1.77;;
70369;SDS011;57790;51.356;-2.906;2022-08-19T09:58:12;11.40;;;1.90;;
70369;SDS011;57790;51.356;-2.906;2022-08-19T10:01:16;11.80;;;1.85;;
70369;SDS011;57790;51.356;-2.906;2022-08-19T10:04:22;12.43;;;1.90;;
70369;SDS011;57790;51.356;-2.906;2022-08-19T10:07:43;15.18;;;2.60;;
70369;SDS011;57790;51.356;-2.906;2022-08-19T10:10:44;11.93;;;1.87;;
70369;SDS011;57790;51.356;-2.906;2022-08-19T10:13:45;8.15;;;1.75;;
70369;SDS011;57790;51.356;-2.906;2022-08-19T10:16:46;9.35;;;1.77;;
70369;SDS011;57790;51.356;-2.906;2022-08-19T10:19:47;8.20;;;1.40;;
70369;SDS011;57790;51.356;-2.906;2022-08-19T10:22:47;9.30;;;1.77;;
70369;SDS011;57790;51.356;-2.906;2022-08-19T10:25:48;10.20;;;2.00;;
70369;SDS011;57790;51.356;-2.906;2022-08-19T10:28:49;12.07;;;2.08;;
70369;SDS011;57790;51.356;-2.906;2022-08-19T10:31:50;10.70;;;2.17;;
70369;SDS011;57790;51.356;-2.906;2022-08-19T10:34:50;10.00;;;2.30;;
70369;SDS011;57790;51.356;-2.906;2022-08-19T10:37:52;10.20;;;2.40;;
70369;SDS011;57790;51.356;-2.906;2022-08-19T10:40:52;10.43;;;2.77;;
70369;SDS011;57790;51.356;-2.906;2022-08-19T10:43:54;9.20;;;2.40;;
70369;SDS011;57790;51.356;-2.906;2022-08-19T10:46:58;10.52;;;2.63;;
70369;SDS011;57790;51.356;-2.906;2022-08-19T10:49:58;11.97;;;2.83;;
70369;SDS011;57790;51.356;-2.906;2022-08-19T10:53:17;10.45;;;2.65;;
70369;SDS011;57790;51.356;-2.906;2022-08-19T10:56:19;12.85;;;3.05;;
70369;SDS011;57790;51.356;-2.906;2022-08-19T10:59:38;12.23;;;2.97;;
70369;SDS011;57790;51.356;-2.906;2022-08-19T11:02:39;10.52;;;3.20;;
70369;SDS011;57790;51.356;-2.906;2022-08-19T11:05:41;10.50;;;3.00;;
70369;SDS011;57790;51.356;-2.906;2022-08-19T11:08:41;10.15;;;2.70;;
70369;SDS011;57790;51.356;-2.906;2022-08-19T11:11:45;11.83;;;3.33;;
70369;SDS011;57790;51.356;-2.906;2022-08-19T11:14:47;13.05;;;3.28;;
70369;SDS011;57790;51.356;-2.906;2022-08-19T11:17:51;12.55;;;3.10;;
70369;SDS011;57790;51.356;-2.906;2022-08-19T11:20:52;12.20;;;3.58;;
70369;SDS011;57790;51.356;-2.906;2022-08-19T11:23:54;11.67;;;3.30;;
70369;SDS011;57790;51.356;-2.906;2022-08-19T11:27:00;11.13;;;2.95;;
70369;SDS011;57790;51.356;-2.906;2022-08-19T11:30:05;11.25;;;3.25;;
70369;SDS011;57790;51.356;-2.906;2022-08-19T11:33:07;12.82;;;2.90;;
70369;SDS011;57790;51.356;-2.906;2022-08-19T11:36:10;14.97;;;3.67;;
70369;SDS011;57790;51.356;-2.906;2022-08-19T11:39:12;12.85;;;3.08;;
70369;SDS011;57790;51.356;-2.906;2022-08-19T11:42:14;10.55;;;3.50;;
70369;SDS011;57790;51.356;-2.906;2022-08-19T11:45:33;11.57;;;3.07;;
70369;SDS011;57790;51.356;-2.906;2022-08-19T11:48:34;9.43;;;2.75;;
70369;SDS011;57790;51.356;-2.906;2022-08-19T11:51:35;11.68;;;3.20;;
70369;SDS011;57790;51.356;-2.906;2022-08-19T11:54:35;10.03;;;3.03;;
70369;SDS011;57790;51.356;-2.906;2022-08-19T11:57:36;14.07;;;4.03;;
70369;SDS011;57790;51.356;-2.906;2022-08-19T12:00:37;9.73;;;3.00;;
70369;SDS011;57790;51.356;-2.906;2022-08-19T12:03:38;11.05;;;3.50;;
70369;SDS011;57790;51.356;-2.906;2022-08-19T12:06:39;11.20;;;3.40;;
70369;SDS011;57790;51.356;-2.906;2022-08-19T12:09:41;12.60;;;3.67;;
70369;SDS011;57790;51.356;-2.906;2022-08-19T12:12:41;12.70;;;3.60;;
70369;SDS011;57790;51.356;-2.906;2022-08-19T12:15:44;12.63;;;3.75;;
70369;SDS011;57790;51.356;-2.906;2022-08-19T12:18:47;12.48;;;3.20;;
70369;SDS011;57790;51.356;-2.906;2022-08-19T12:21:47;12.27;;;3.95;;
70369;SDS011;57790;51.356;-2.906;2022-08-19T12:24:49;13.02;;;3.42;;
70369;SDS011;57790;51.356;-2.906;2022-08-19T12:27:52;12.93;;;3.67;;
70369;SDS011;57790;51.356;-2.906;2022-08-19T12:30:52;13.82;;;3.85;;
70369;SDS011;57790;51.356;-2.906;2022-08-19T12:33:53;13.63;;;3.90;;
70369;SDS011;57790;51.356;-2.906;2022-08-19T12:36:53;12.30;;;3.63;;
70369;SDS011;57790;51.356;-2.906;2022-08-19T12:39:53;12.60;;;4.37;;
70369;SDS011;57790;51.356;-2.906;2022-08-19T12:42:54;14.87;;;4.33;;
70369;SDS011;57790;51.356;-2.906;2022-08-19T12:45:55;12.23;;;3.47;;
70369;SDS011;57790;51.356;-2.906;2022-08-19T12:48:56;12.23;;;3.77;;
70369;SDS011;57790;51.356;-2.906;2022-08-19T12:51:56;10.32;;;3.78;;
70369;SDS011;57790;51.356;-2.906;2022-08-19T12:54:58;12.70;;;3.70;;
70369;SDS011;57790;51.356;-2.906;2022-08-19T12:57:58;12.03;;;3.90;;
70369;SDS011;57790;51.356;-2.906;2022-08-19T13:01:08;13.77;;;4.13;;
70369;SDS011;57790;51.356;-2.906;2022-08-19T13:04:14;10.07;;;3.60;;
70369;SDS011;57790;51.356;-2.906;2022-08-19T13:07:16;11.00;;;4.13;;
70369;SDS011;57790;51.356;-2.906;2022-08-19T13:10:18;11.57;;;4.30;;
70369;SDS011;57790;51.356;-2.906;2022-08-19T13:13:19;11.97;;;4.10;;
70369;SDS011;57790;51.356;-2.906;2022-08-19T13:16:20;11.55;;;3.72;;
70369;SDS011;57790;51.356;-2.906;2022-08-19T13:19:21;10.57;;;3.70;;
70369;SDS011;57790;51.356;-2.906;2022-08-19T13:22:23;13.88;;;4.00;;
70369;SDS011;57790;51.356;-2.906;2022-08-19T13:25:24;14.82;;;3.58;;
70369;SDS011;57790;51.356;-2.906;2022-08-19T13:28:25;13.37;;;3.90;;
70369;SDS011;57790;51.356;-2.906;2022-08-19T13:31:26;11.95;;;3.92;;
70369;SDS011;57790;51.356;-2.906;2022-08-19T13:34:49;11.53;;;4.03;;
70369;SDS011;57790;51.356;-2.906;2022-08-19T13:37:49;12.20;;;3.55;;
70369;SDS011;57790;51.356;-2.906;2022-08-19T13:40:50;10.97;;;3.87;;
70369;SDS011;57790;51.356;-2.906;2022-08-19T13:43:52;12.35;;;3.65;;
70369;SDS011;57790;51.356;-2.906;2022-08-19T13:46:52;10.03;;;3.77;;
70369;SDS011;57790;51.356;-2.906;2022-08-19T13:49:53;11.70;;;3.72;;
70369;SDS011;57790;51.356;-2.906;2022-08-19T13:52:54;11.60;;;4.00;;
70369;SDS011;57790;51.356;-2.906;2022-08-19T13:55:55;9.82;;;3.72;;
70369;SDS011;57790;51.356;-2.906;2022-08-19T13:58:57;11.53;;;4.00;;
70369;SDS011;57790;51.356;-2.906;2022-08-19T14:01:58;11.23;;;4.00;;
70369;SDS011;57790;51.356;-2.906;2022-08-19T14:04:59;12.45;;;3.60;;
70369;SDS011;57790;51.356;-2.906;2022-08-19T14:08:00;12.33;;;3.80;;
70369;SDS011;57790;51.356;-2.906;2022-08-19T14:11:00;15.73;;;3.97;;
70369;SDS011;57790;51.356;-2.906;2022-08-19T14:14:01;12.83;;;3.80;;
70369;SDS011;57790;51.356;-2.906;2022-08-19T14:17:01;19.83;;;4.70;;
70369;SDS011;57790;51.356;-2.906;2022-08-19T14:20:02;9.80;;;3.40;;
70369;SDS011;57790;51.356;-2.906;2022-08-19T14:23:08;8.73;;;2.85;;
70369;SDS011;57790;51.356;-2.906;2022-08-19T14:26:11;12.32;;;3.28;;
70369;SDS011;57790;51.356;-2.906;2022-08-19T14:29:13;10.55;;;2.90;;
70369;SDS011;57790;51.356;-2.906;2022-08-19T14:32:14;9.93;;;3.23;;
70369;SDS011;57790;51.356;-2.906;2022-08-19T14:35:15;9.70;;;2.80;;
70369;SDS011;57790;51.356;-2.906;2022-08-19T14:38:16;12.80;;;3.77;;
70369;SDS011;57790;51.356;-2.906;2022-08-19T14:41:22;14.25;;;3.72;;
70369;SDS011;57790;51.356;-2.906;2022-08-19T14:44:22;9.43;;;2.45;;
70369;SDS011;57790;51.356;-2.906;2022-08-19T14:47:23;9.53;;;2.60;;
70369;SDS011;57790;51.356;-2.906;2022-08-19T14:50:23;10.90;;;2.50;;
70369;SDS011;57790;51.356;-2.906;2022-08-19T14:53:24;9.23;;;2.20;;
70369;SDS011;57790;51.356;-2.906;2022-08-19T14:56:26;7.87;;;2.03;;
70369;SDS011;57790;51.356;-2.906;2022-08-19T14:59:29;6.82;;;2.00;;
70369;SDS011;57790;51.356;-2.906;2022-08-19T15:02:29;7.57;;;1.77;;
70369;SDS011;57790;51.356;-2.906;2022-08-19T15:05:29;8.32;;;1.80;;
70369;SDS011;57790;51.356;-2.906;2022-08-19T15:08:30;8.57;;;1.80;;
70369;SDS011;57790;51.356;-2.906;2022-08-19T15:11:32;7.90;;;2.00;;
70369;SDS011;57790;51.356;-2.906;2022-08-19T15:14:35;7.03;;;2.10;;
70369;SDS011;57790;51.356;-2.906;2022-08-19T15:17:37;8.18;;;2.20;;
70369;SDS011;57790;51.356;-2.906;2022-08-19T15:20:40;8.93;;;1.98;;
70369;SDS011;57790;51.356;-2.906;2022-08-19T15:23:41;10.63;;;2.23;;
70369;SDS011;57790;51.356;-2.906;2022-08-19T15:26:41;8.93;;;1.97;;
70369;SDS011;57790;51.356;-2.906;2022-08-19T15:29:42;8.05;;;2.00;;
70369;SDS011;57790;51.356;-2.906;2022-08-19T15:32:43;8.70;;;1.73;;
70369;SDS011;57790;51.356;-2.906;2022-08-19T15:35:43;7.23;;;1.90;;
70369;SDS011;57790;51.356;-2.906;2022-08-19T15:38:44;8.73;;;2.00;;
70369;SDS011;57790;51.356;-2.906;2022-08-19T15:41:45;8.85;;;1.70;;
70369;SDS011;57790;51.356;-2.906;2022-08-19T15:44:46;7.93;;;1.80;;
70369;SDS011;57790;51.356;-2.906;2022-08-19T15:47:47;7.38;;;1.45;;
70369;SDS011;57790;51.356;-2.906;2022-08-19T15:50:47;9.83;;;1.60;;
70369;SDS011;57790;51.356;-2.906;2022-08-19T15:53:48;8.23;;;1.60;;
70369;SDS011;57790;51.356;-2.906;2022-08-19T15:56:49;7.75;;;1.52;;
70369;SDS011;57790;51.356;-2.906;2022-08-19T16:00:09;10.45;;;1.70;;
70369;SDS011;57790;51.356;-2.906;2022-08-19T16:03:27;7.50;;;1.45;;
70369;SDS011;57790;51.356;-2.906;2022-08-19T16:06:50;6.82;;;1.50;;
70369;SDS011;57790;51.356;-2.906;2022-08-19T16:09:53;7.93;;;1.60;;
70369;SDS011;57790;51.356;-2.906;2022-08-19T16:12:54;6.97;;;1.70;;
70369;SDS011;57790;51.356;-2.906;2022-08-19T16:15:56;7.17;;;1.40;;
70369;SDS011;57790;51.356;-2.906;2022-08-19T16:18:57;8.70;;;1.73;;
70369;SDS011;57790;51.356;-2.906;2022-08-19T16:21:59;11.48;;;1.50;;
70369;SDS011;57790;51.356;-2.906;2022-08-19T16:25:00;6.93;;;1.47;;
70369;SDS011;57790;51.356;-2.906;2022-08-19T16:28:01;8.30;;;1.30;;
70369;SDS011;57790;51.356;-2.906;2022-08-19T16:31:02;5.65;;;1.30;;
70369;SDS011;57790;51.356;-2.906;2022-08-19T16:34:03;11.17;;;2.03;;
70369;SDS011;57790;51.356;-2.906;2022-08-19T16:37:05;10.85;;;1.90;;
70369;SDS011;57790;51.356;-2.906;2022-08-19T16:40:05;7.93;;;1.60;;
70369;SDS011;57790;51.356;-2.906;2022-08-19T16:43:08;8.23;;;1.30;;
70369;SDS011;57790;51.356;-2.906;2022-08-19T16:46:09;8.70;;;1.40;;
70369;SDS011;57790;51.356;-2.906;2022-08-19T16:49:10;7.85;;;1.55;;
70369;SDS011;57790;51.356;-2.906;2022-08-19T16:52:10;7.80;;;1.50;;
70369;SDS011;57790;51.356;-2.906;2022-08-19T16:55:11;9.23;;;1.40;;
70369;SDS011;57790;51.356;-2.906;2022-08-19T16:58:11;6.88;;;1.05;;
70369;SDS011;57790;51.356;-2.906;2022-08-19T17:01:12;8.93;;;1.43;;
70369;SDS011;57790;51.356;-2.906;2022-08-19T17:04:13;7.75;;;1.58;;
70369;SDS011;57790;51.356;-2.906;2022-08-19T17:07:14;7.07;;;1.13;;
70369;SDS011;57790;51.356;-2.906;2022-08-19T17:10:14;8.40;;;1.20;;
70369;SDS011;57790;51.356;-2.906;2022-08-19T17:13:15;10.50;;;1.42;;
70369;SDS011;57790;51.356;-2.906;2022-08-19T17:16:16;8.73;;;2.20;;
70369;SDS011;57790;51.356;-2.906;2022-08-19T17:19:18;8.98;;;1.20;;
70369;SDS011;57790;51.356;-2.906;2022-08-19T17:22:19;8.87;;;1.20;;
70369;SDS011;57790;51.356;-2.906;2022-08-19T17:25:19;7.73;;;1.10;;
70369;SDS011;57790;51.356;-2.906;2022-08-19T17:28:21;7.80;;;1.10;;
70369;SDS011;57790;51.356;-2.906;2022-08-19T17:31:24;8.18;;;1.50;;
70369;SDS011;57790;51.356;-2.906;2022-08-19T17:34:26;7.25;;;1.40;;
70369;SDS011;57790;51.356;-2.906;2022-08-19T17:37:27;10.10;;;1.50;;
70369;SDS011;57790;51.356;-2.906;2022-08-19T17:40:28;8.65;;;1.50;;
70369;SDS011;57790;51.356;-2.906;2022-08-19T17:43:29;8.25;;;1.30;;
70369;SDS011;57790;51.356;-2.906;2022-08-19T17:46:34;10.13;;;1.45;;
70369;SDS011;57790;51.356;-2.906;2022-08-19T17:49:34;9.83;;;1.17;;
70369;SDS011;57790;51.356;-2.906;2022-08-19T17:52:36;8.48;;;1.73;;
70369;SDS011;57790;51.356;-2.906;2022-08-19T17:55:37;10.90;;;1.23;;
70369;SDS011;57790;51.356;-2.906;2022-08-19T17:58:39;7.18;;;1.30;;
70369;SDS011;57790;51.356;-2.906;2022-08-19T18:01:41;6.13;;;1.30;;
70369;SDS011;57790;51.356;-2.906;2022-08-19T18:04:42;8.48;;;1.20;;